Time;durP1;ratioP1;P1;durP2;ratioP2;P2;SDS_P1;SDS_P2;PMS_P1;PMS_P2;Temp;Humidity;BMP_temperature;BMP_pressure;BME280_temperature;BME280_humidity;BME280_pressure;Samples;Min_cycle;Max_cycle;Signal;HPM_P1;HPM_P2
2022/09/25 00:00:23;;;;;;;5.00;4.28;;;19.40;99.90;;;19.40;62.08;98571.72;5074886;28;20054;-75
2022/09/25 00:03:10;;;;;;;5.75;4.80;;;19.40;99.90;;;19.41;62.00;98570.56;5095707;27;20047;-75
2022/09/25 00:05:41;;;;;;;6.50;5.20;;;19.40;99.90;;;19.42;62.33;98573.00;5074325;28;20056;-74
2022/09/25 00:08:08;;;;;;;6.70;4.85;;;19.40;99.90;;;19.43;62.10;98573.81;5072406;28;20126;-75
2022/09/25 00:10:34;;;;;;;8.70;6.07;;;19.40;99.90;;;19.38;62.12;98568.50;5071753;27;20491;-75
2022/09/25 00:13:00;;;;;;;6.50;4.82;;;19.40;99.90;;;19.35;62.56;98564.50;5095678;28;20066;-75
2022/09/25 00:15:26;;;;;;;7.00;5.03;;;19.30;99.90;;;19.43;61.96;98562.81;5073949;28;20138;-75
2022/09/25 00:17:52;;;;;;;6.55;5.03;;;19.40;99.90;;;19.40;62.08;98560.72;5087704;28;20050;-75
2022/09/25 00:20:19;;;;;;;6.20;4.97;;;19.30;99.90;;;19.41;62.01;98567.81;5106860;27;20040;-76
2022/09/25 00:22:46;;;;;;;6.75;4.82;;;19.30;99.90;;;19.40;62.33;98569.78;5093315;27;20498;-76
2022/09/25 00:25:13;;;;;;;9.13;5.97;;;19.30;99.90;;;19.38;62.45;98568.50;5070472;27;20371;-76
2022/09/25 00:27:40;;;;;;;7.68;5.38;;;19.30;99.90;;;19.37;62.30;98559.47;5090320;28;20036;-76
2022/09/25 00:30:08;;;;;;;6.78;4.80;;;19.30;99.90;;;19.36;62.39;98565.28;5107369;27;20039;-76
2022/09/25 00:32:34;;;;;;;7.82;4.85;;;19.30;99.90;;;19.36;62.56;98563.38;5090658;28;20048;-76
2022/09/25 00:35:00;;;;;;;8.60;5.70;;;19.30;99.90;;;19.34;62.16;98551.88;5079319;28;20036;-76
2022/09/25 00:37:29;;;;;;;9.77;6.40;;;19.20;99.90;;;19.29;62.54;98552.09;5089596;27;20038;-76
2022/09/25 00:39:56;;;;;;;10.85;5.85;;;19.30;99.90;;;19.33;62.46;98564.00;5102817;27;20659;-76
2022/09/25 00:42:22;;;;;;;8.20;5.47;;;19.20;99.90;;;19.34;62.26;98562.09;5105844;28;20059;-76
2022/09/25 00:44:59;;;;;;;8.15;5.45;;;19.20;99.90;;;19.30;62.51;98553.69;5103740;27;20118;-76
2022/09/25 00:47:41;;;;;;;7.60;5.72;;;19.30;99.90;;;19.34;62.33;98553.84;5104421;27;20047;-76
2022/09/25 00:50:45;;;;;;;7.07;5.22;;;19.20;99.90;;;19.32;61.90;98550.63;5105871;27;20360;-76
2022/09/25 00:53:15;;;;;;;7.05;5.60;;;19.30;99.90;;;19.29;61.76;98546.59;5087771;28;20463;-76
2022/09/25 00:55:42;;;;;;;5.93;5.10;;;19.30;99.90;;;19.33;62.49;98539.25;5092890;28;20050;-76
2022/09/25 00:58:08;;;;;;;7.70;5.40;;;19.30;99.90;;;19.30;62.86;98535.25;5076058;28;20040;-76
2022/09/25 01:00:34;;;;;;;7.43;5.15;;;19.30;99.90;;;19.31;62.26;98530.56;5087309;28;20052;-76
2022/09/25 01:03:00;;;;;;;7.53;5.20;;;19.30;99.90;;;19.29;62.27;98530.09;5089045;28;20054;-76
2022/09/25 01:05:36;;;;;;;6.50;5.75;;;19.20;99.90;;;19.28;61.90;98528.47;5109419;27;20036;-76
2022/09/25 01:08:04;;;;;;;7.45;5.18;;;19.20;99.90;;;19.27;62.24;98521.38;5118255;27;20040;-76
2022/09/25 01:10:31;;;;;;;8.98;5.30;;;19.20;99.90;;;19.28;62.74;98526.56;5090643;28;20051;-76
2022/09/25 01:12:57;;;;;;;5.68;5.03;;;19.20;99.90;;;19.29;63.10;98514.41;5069600;28;20093;-76
2022/09/25 01:16:02;;;;;;;8.02;5.55;;;19.20;99.90;;;19.24;62.45;98522.06;5073210;28;20387;-76
2022/09/25 01:18:47;;;;;;;7.75;4.50;;;19.20;99.90;;;19.28;62.11;98526.56;5073936;28;20056;-76
2022/09/25 01:21:54;;;;;;;9.05;6.05;;;19.20;99.90;;;19.23;62.21;98520.44;5093216;28;20032;-76
2022/09/25 01:24:47;;;;;;;6.10;4.53;;;19.20;99.90;;;19.23;62.27;98521.25;5091392;28;20075;-76
2022/09/25 01:27:41;;;;;;;7.38;5.72;;;19.10;99.90;;;19.27;62.60;98521.38;5106838;28;20247;-76
2022/09/25 01:30:09;;;;;;;7.90;5.15;;;19.20;99.90;;;19.28;62.84;98511.97;5088166;28;20040;-76
2022/09/25 01:33:04;;;;;;;6.10;5.20;;;19.20;99.90;;;19.28;62.15;98512.81;5076361;28;20060;-76
2022/09/25 01:35:44;;;;;;;7.20;5.35;;;19.20;99.90;;;19.24;62.25;98506.34;5078439;28;20059;-76
2022/09/25 01:38:42;;;;;;;8.10;5.60;;;19.20;99.90;;;19.28;61.81;98509.22;5104679;28;20036;-76
2022/09/25 01:41:16;;;;;;;8.00;5.88;;;19.10;99.90;;;19.26;62.42;98511.53;5093758;28;20044;-76
2022/09/25 01:43:51;;;;;;;7.70;5.57;;;19.20;99.90;;;19.26;62.37;98504.09;5110909;27;20501;-76
2022/09/25 01:46:22;;;;;;;9.30;5.97;;;19.20;99.90;;;19.23;62.79;98518.50;5092184;28;20040;-76
2022/09/25 01:49:15;;;;;;;7.15;5.15;;;19.20;99.90;;;19.22;62.25;98514.13;5080081;27;20049;-76
2022/09/25 01:51:49;;;;;;;7.15;5.70;;;19.20;99.90;;;19.21;62.19;98518.03;5094385;27;20047;-76
2022/09/25 01:54:21;;;;;;;8.10;5.00;;;19.20;99.90;;;19.24;61.37;98522.06;5078445;27;20031;-76
2022/09/25 01:56:57;;;;;;;9.85;6.43;;;19.20;99.90;;;19.23;62.38;98515.75;5095776;28;20086;-76
2022/09/25 01:59:48;;;;;;;8.48;5.60;;;19.20;99.90;;;19.25;62.47;98502.44;5094260;28;20040;-76
2022/09/25 02:02:18;;;;;;;7.00;5.40;;;19.20;99.90;;;19.26;62.68;98512.34;5112397;27;20035;-76
2022/09/25 02:05:01;;;;;;;9.20;5.55;;;19.20;99.90;;;19.23;61.88;98515.75;5088956;27;20051;-76
2022/09/25 02:07:36;;;;;;;8.20;5.18;;;19.20;99.90;;;19.24;62.04;98517.34;5076339;27;20050;-76
2022/09/25 02:10:09;;;;;;;8.50;6.30;;;19.20;99.90;;;19.23;61.86;98520.44;5078030;27;20077;-76
2022/09/25 02:12:43;;;;;;;16.50;5.43;;;19.10;99.90;;;19.22;61.73;98516.88;5094337;28;20043;-76
2022/09/25 02:15:28;;;;;;;10.07;6.07;;;19.20;99.90;;;19.28;62.33;98511.97;5079485;28;20036;-76
2022/09/25 02:21:06;;;;;;;9.73;6.18;;;19.20;99.90;;;19.22;61.91;98511.38;5082918;27;20473;-76
2022/09/25 02:23:56;;;;;;;8.50;5.85;;;19.20;99.90;;;19.19;61.78;98503.81;5110234;27;20032;-76
2022/09/25 02:26:26;;;;;;;8.98;5.95;;;19.20;99.90;;;19.21;61.92;98498.78;5081138;27;20496;-76
2022/09/25 02:28:53;;;;;;;8.68;5.30;;;19.20;99.90;;;19.22;61.87;98502.34;5092305;28;20044;-76
2022/09/25 02:31:22;;;;;;;13.15;4.80;;;19.20;99.90;;;19.25;62.32;98501.66;5075729;28;20039;-76
2022/09/25 02:33:49;;;;;;;10.32;6.10;;;19.20;99.90;;;19.25;62.26;98505.19;5074456;27;20724;-77
2022/09/25 02:36:19;;;;;;;6.45;5.15;;;19.20;99.90;;;19.22;61.80;98499.59;5092375;27;20040;-79
2022/09/25 02:38:45;;;;;;;9.07;5.82;;;19.20;99.90;;;19.23;61.88;98501.19;5097560;28;20046;-77
2022/09/25 02:41:51;;;;;;;6.95;5.38;;;19.20;99.90;;;19.20;61.34;98512.88;5090038;28;20109;-77
2022/09/25 02:44:30;;;;;;;7.80;6.10;;;19.20;99.90;;;19.23;61.38;98510.25;5109674;27;20047;-76
2022/09/25 02:47:02;;;;;;;7.88;5.45;;;19.20;99.90;;;19.23;62.32;98510.25;5108050;27;20387;-77
2022/09/25 02:50:12;;;;;;;9.07;6.05;;;19.20;99.90;;;19.23;62.22;98498.44;5107566;27;20036;-77
2022/09/25 02:52:59;;;;;;;8.52;5.38;;;19.20;99.90;;;19.22;61.87;98500.38;5097774;27;20448;-77
2022/09/25 02:55:41;;;;;;;9.20;5.80;;;19.20;99.90;;;19.22;61.54;98494.09;5104390;27;20115;-77
2022/09/25 02:58:28;;;;;;;7.80;6.10;;;19.20;99.90;;;19.22;61.44;98496.84;5091475;27;20046;-76
2022/09/25 03:00:55;;;;;;;8.50;6.28;;;19.20;99.90;;;19.22;61.38;98492.13;5080254;28;20074;-76
2022/09/25 03:03:23;;;;;;;7.65;5.95;;;19.20;99.90;;;19.24;62.12;98489.88;5109717;27;20046;-77
2022/09/25 03:05:49;;;;;;;5.43;4.93;;;19.20;99.90;;;19.22;62.35;98491.34;5088927;27;20040;-77
2022/09/25 03:11:00;;;;;;;8.23;5.85;;;19.20;99.90;;;19.21;61.22;98484.22;5081280;28;20460;-77
2022/09/25 03:13:30;;;;;;;8.60;5.22;;;19.20;99.90;;;19.17;61.41;98486.06;5080073;28;20751;-77
2022/09/25 03:16:44;;;;;;;7.43;5.53;;;19.20;99.90;;;19.16;61.34;98488.00;5076322;28;20470;-76
2022/09/25 03:19:11;;;;;;;7.60;5.40;;;19.20;99.90;;;19.22;61.78;98472.88;5097375;28;20043;-75
2022/09/25 03:21:37;;;;;;;6.55;5.28;;;19.20;99.90;;;19.22;61.89;98481.13;5089031;28;20587;-75
2022/09/25 03:24:03;;;;;;;6.30;5.18;;;19.20;99.90;;;19.23;61.52;98479.19;5094580;28;20459;-75
2022/09/25 03:26:29;;;;;;;7.40;5.70;;;19.20;99.90;;;19.21;61.18;98474.03;5092450;28;20126;-75
2022/09/25 03:28:56;;;;;;;7.60;5.57;;;19.20;99.90;;;19.17;61.40;98475.84;5111094;27;20401;-75
2022/09/25 03:31:22;;;;;;;6.22;5.45;;;19.20;99.90;;;19.17;61.46;98477.81;5094598;28;20036;-75
2022/09/25 03:33:48;;;;;;;7.47;4.85;;;19.20;99.90;;;19.15;61.77;98475.38;5104868;27;20032;-75
2022/09/25 03:36:19;;;;;;;7.50;6.03;;;19.20;99.90;;;19.20;61.75;98475.16;5074285;28;20089;-76
2022/09/25 03:38:57;;;;;;;7.07;5.55;;;19.20;99.90;;;19.23;62.07;98469.03;5079871;28;20434;-75
2022/09/25 03:41:26;;;;;;;7.15;5.55;;;19.20;99.90;;;19.20;61.24;98466.13;5095767;27;20095;-75
2022/09/25 03:43:52;;;;;;;5.93;4.60;;;19.20;99.90;;;19.17;61.23;98473.09;5089423;27;20096;-75
2022/09/25 03:46:30;;;;;;;8.15;5.88;;;19.20;99.90;;;19.16;61.09;98468.75;5108199;27;20402;-75
2022/09/25 03:48:57;;;;;;;9.93;6.45;;;19.10;99.90;;;19.15;61.22;98461.63;5080046;27;20376;-75
2022/09/25 03:51:25;;;;;;;9.32;5.25;;;19.10;99.90;;;19.17;61.63;98459.34;5089759;27;20566;-76
2022/09/25 03:53:51;;;;;;;7.00;5.35;;;19.20;99.90;;;19.16;60.69;98462.44;5126727;27;20044;-75
2022/09/25 03:56:19;;;;;;;5.57;4.72;;;19.20;99.90;;;19.14;60.39;98462.78;5109534;27;20038;-78
2022/09/25 03:58:46;;;;;;;7.07;5.60;;;19.20;99.90;;;19.16;59.79;98462.44;5087105;27;20169;-75
2022/09/25 04:01:13;;;;;;;8.38;6.63;;;19.20;99.90;;;19.11;59.87;98459.91;5090089;27;20092;-75
2022/09/25 04:03:39;;;;;;;9.52;6.07;;;19.20;99.80;;;19.14;60.41;98462.78;5110788;27;20070;-75
2022/09/25 04:06:07;;;;;;;6.10;5.40;;;19.20;99.90;;;19.16;60.88;98465.19;5107245;27;20119;-75
2022/09/25 04:08:35;;;;;;;6.93;5.68;;;19.20;99.90;;;19.17;60.56;98473.09;5091858;27;20039;-75
2022/09/25 04:11:01;;;;;;;7.07;6.22;;;19.20;99.90;;;19.14;59.84;98473.00;5094564;27;20035;-75
2022/09/25 04:13:30;;;;;;;9.38;6.57;;;19.20;99.80;;;19.13;59.15;98466.66;5087501;27;20122;-75
2022/09/25 04:16:00;;;;;;;8.02;5.90;;;19.20;99.70;;;19.13;59.13;98474.91;5105126;27;20244;-75
2022/09/25 04:18:27;;;;;;;6.95;5.95;;;19.20;99.60;;;19.14;59.15;98464.75;5089774;28;20066;-75
2022/09/25 04:20:53;;;;;;;9.45;6.03;;;19.20;99.60;;;19.16;59.88;98470.69;5092786;27;20043;-75
2022/09/25 04:23:21;;;;;;;8.13;6.18;;;19.10;99.90;;;19.17;60.12;98470.34;5108594;27;20044;-75
2022/09/25 04:25:47;;;;;;;8.55;6.50;;;19.20;99.90;;;19.13;59.51;98472.16;5107751;27;20042;-75
2022/09/25 04:28:13;;;;;;;7.85;5.70;;;19.20;99.70;;;19.09;59.15;98465.75;5092107;27;20052;-75
2022/09/25 04:30:39;;;;;;;7.03;6.35;;;19.20;99.50;;;19.11;59.02;98463.47;5094110;27;20069;-81
2022/09/25 04:35:50;;;;;;;8.18;6.22;;;19.10;99.30;;;19.11;59.30;98460.72;5091046;28;20120;-77
2022/09/25 04:38:17;;;;;;;9.68;7.10;;;19.10;99.60;;;19.09;59.74;98461.06;5072820;28;20505;-77
2022/09/25 04:40:44;;;;;;;9.13;6.75;;;19.10;99.80;;;19.15;59.91;98461.63;5102880;27;20043;-78
2022/09/25 04:43:10;;;;;;;8.05;6.18;;;19.10;99.90;;;19.11;58.65;98463.47;5070424;28;20497;-75
2022/09/25 04:45:36;;;;;;;7.70;6.20;;;19.10;99.40;;;19.08;58.44;98459.47;5092277;27;20039;-75
2022/09/25 04:48:03;;;;;;;9.10;6.75;;;19.10;99.20;;;19.07;58.18;98462.53;5106674;27;20039;-75
2022/09/25 04:50:29;;;;;;;9.27;6.93;;;19.10;99.10;;;19.09;58.13;98465.75;5089999;27;20110;-75
2022/09/25 04:52:59;;;;;;;7.00;5.90;;;19.10;99.10;;;19.11;59.12;98462.66;5084588;27;20166;-75
2022/09/25 04:55:26;;;;;;;9.05;6.57;;;19.10;99.60;;;19.12;59.34;98469.78;5083800;28;20048;-75
2022/09/25 04:58:00;;;;;;;8.50;6.15;;;19.10;99.60;;;19.13;58.76;98458.41;5106882;27;20565;-75
2022/09/25 05:00:29;;;;;;;11.38;7.40;;;19.10;99.40;;;19.06;58.57;98466.44;5101804;27;20044;-75
2022/09/25 05:02:55;;;;;;;7.90;6.57;;;19.00;99.20;;;19.08;58.15;98464.13;5088622;28;20055;-75
2022/09/25 05:05:21;;;;;;;9.45;6.25;;;19.00;99.10;;;19.08;57.93;98469.63;5087852;27;20035;-76
2022/09/25 05:07:59;;;;;;;12.13;7.93;;;19.10;99.00;;;19.08;58.24;98467.69;5102986;28;20045;-76
2022/09/25 05:10:30;;;;;;;32.33;16.65;;;19.10;99.10;;;19.13;58.64;98468.63;5123131;27;20068;-76
2022/09/25 05:12:58;;;;;;;39.38;17.02;;;19.10;99.50;;;19.14;59.01;98473.78;5070837;28;20370;-76
2022/09/25 05:15:25;;;;;;;19.70;9.43;;;19.10;99.90;;;19.11;58.06;98468.97;5104242;28;20044;-76
2022/09/25 05:18:02;;;;;;;21.73;12.32;;;19.10;99.10;;;19.13;57.64;98476.88;5072146;28;20050;-75
2022/09/25 05:20:28;;;;;;;20.20;10.52;;;19.10;99.00;;;19.13;57.55;98476.88;5089671;28;20093;-75
2022/09/25 05:22:56;;;;;;;17.95;11.57;;;19.10;98.90;;;19.07;57.58;98468.03;5090071;28;20047;-75
2022/09/25 05:25:24;;;;;;;48.85;20.08;;;19.10;98.80;;;19.16;58.40;98471.50;5073275;28;20035;-75
2022/09/25 05:27:54;;;;;;;52.75;23.48;;;19.10;99.30;;;19.16;58.30;98468.75;5090083;28;20433;-75
2022/09/25 05:30:21;;;;;;;53.38;22.50;;;19.10;99.30;;;19.13;58.19;98466.66;5085819;28;20383;-75
2022/09/25 05:32:49;;;;;;;29.58;16.52;;;19.10;99.10;;;19.12;57.66;98478.00;5088767;28;20065;-75
2022/09/25 05:35:20;;;;;;;38.83;16.92;;;19.10;98.80;;;19.09;57.73;98479.50;5085731;28;20046;-76
2022/09/25 05:37:46;;;;;;;36.15;15.23;;;19.10;98.70;;;19.11;57.22;98479.13;5089671;28;20044;-75
2022/09/25 05:40:14;;;;;;;32.67;17.10;;;19.10;98.60;;;19.11;57.63;98479.13;5072301;28;20062;-75
2022/09/25 05:42:43;;;;;;;67.30;25.45;;;19.10;98.70;;;19.17;57.88;98469.56;5071639;28;20081;-75
2022/09/25 05:45:10;;;;;;;74.65;34.95;;;19.10;99.20;;;19.12;58.56;98481.56;5088282;28;20042;-75
2022/09/25 05:47:38;;;;;;;50.88;22.10;;;19.10;99.20;;;19.18;57.46;98479.41;5103242;28;20048;-75
2022/09/25 05:50:05;;;;;;;56.28;22.98;;;19.10;98.80;;;19.15;57.24;98480.09;5105156;28;20067;-75
2022/09/25 05:52:31;;;;;;;40.35;18.92;;;19.20;98.70;;;19.15;57.35;98475.38;5073354;28;20036;-75
2022/09/25 05:54:57;;;;;;;54.25;22.25;;;19.10;98.70;;;19.15;57.63;98480.88;5104704;28;20583;-75
2022/09/25 05:57:23;;;;;;;54.45;24.70;;;19.20;98.90;;;19.16;57.30;98477.00;5073582;28;20071;-75
2022/09/25 05:59:49;;;;;;;40.80;19.33;;;19.10;98.80;;;19.14;57.38;98481.25;5087752;28;20383;-75
2022/09/25 06:02:15;;;;;;;61.63;22.90;;;19.10;98.80;;;19.12;57.43;98480.75;5105125;28;20047;-75
2022/09/25 06:04:42;;;;;;;63.90;29.27;;;19.10;98.80;;;19.20;57.77;98486.16;5086520;28;20055;-76
2022/09/25 06:07:10;;;;;;;72.20;31.65;;;19.20;99.20;;;19.22;58.07;98481.13;5087866;28;20130;-76
2022/09/25 06:09:36;;;;;;;61.67;26.60;;;19.20;99.20;;;19.24;57.60;98476.13;5106254;28;20050;-76
2022/09/25 06:12:03;;;;;;;60.17;24.27;;;19.20;99.00;;;19.23;57.54;98471.78;5071735;28;20043;-76
2022/09/25 06:14:29;;;;;;;59.10;24.65;;;19.20;98.90;;;19.25;57.53;98477.72;5106381;28;20039;-75
2022/09/25 06:16:57;;;;;;;55.10;25.50;;;19.20;98.80;;;19.28;57.23;98485.31;5082407;28;20096;-79
2022/09/25 06:19:23;;;;;;;79.10;29.88;;;19.20;98.80;;;19.29;57.53;98469.59;5072536;28;20040;-77
2022/09/25 06:21:49;;;;;;;82.20;31.40;;;19.20;99.00;;;19.30;57.97;98469.25;5103275;28;20032;-78
2022/09/25 06:24:15;;;;;;;76.78;32.65;;;19.30;99.20;;;19.35;57.98;98468.22;5076432;28;20043;-77
2022/09/25 06:26:41;;;;;;;59.60;27.58;;;19.30;99.20;;;19.35;57.25;98467.44;5106091;28;20054;-76
2022/09/25 06:29:07;;;;;;;65.30;26.73;;;19.30;98.90;;;19.41;57.02;98468.81;5084668;28;20043;-75
2022/09/25 06:31:34;;;;;;;64.72;26.80;;;19.30;98.90;;;19.44;57.01;98465.41;5105502;27;20401;-75
2022/09/25 06:34:01;;;;;;;67.53;26.48;;;19.30;98.90;;;19.46;56.98;98476.84;5089658;27;21040;-75
2022/09/25 06:36:27;;;;;;;74.18;31.17;;;19.30;98.80;;;19.51;57.33;98471.94;5090368;27;20478;-75
2022/09/25 06:38:54;;;;;;;82.90;32.28;;;19.40;99.10;;;19.50;57.13;98470.34;5110212;27;20740;-75
2022/09/25 06:41:21;;;;;;;67.97;28.95;;;19.40;99.10;;;19.49;57.00;98471.50;5083727;27;20038;-76
2022/09/25 06:43:49;;;;;;;65.32;27.75;;;19.40;99.00;;;19.51;56.80;98477.47;5089787;27;20054;-75
2022/09/25 06:46:15;;;;;;;64.55;28.05;;;19.40;98.80;;;19.50;56.68;98469.53;5076173;27;20038;-75
2022/09/25 06:48:41;;;;;;;61.88;27.67;;;19.40;98.80;;;19.48;56.91;98469.06;5100617;27;20044;-76
2022/09/25 06:51:07;;;;;;;57.80;25.30;;;19.40;98.80;;;19.46;57.16;98463.91;5074977;27;20036;-76
2022/09/25 06:53:33;;;;;;;85.22;35.22;;;19.40;98.80;;;19.48;57.52;98460.81;5088420;27;20051;-78
2022/09/25 06:56:00;;;;;;;75.20;32.38;;;19.40;99.10;;;19.49;57.51;98457.72;5093707;27;20055;-75
2022/09/25 06:58:27;;;;;;;75.18;30.67;;;19.40;99.10;;;19.50;57.16;98459.31;5061651;27;20114;-75
2022/09/25 07:00:54;;;;;;;66.35;28.30;;;19.40;98.90;;;19.53;56.86;98458.63;5074265;27;20062;-76
2022/09/25 07:06:06;;;;;;;60.80;26.98;;;19.50;98.70;;;19.59;56.56;98459.25;5077557;27;20224;-75
2022/09/25 07:08:33;;;;;;;70.13;30.23;;;19.50;98.70;;;19.62;56.97;98458.56;5073636;27;20039;-75
2022/09/25 07:11:00;;;;;;;72.25;30.90;;;19.50;98.90;;;19.64;57.01;98449.94;5088240;27;20039;-78
2022/09/25 07:13:28;;;;;;;67.22;30.08;;;19.50;99.00;;;19.63;57.29;98449.16;5092888;27;20506;-75
2022/09/25 07:15:57;;;;;;;65.57;27.17;;;19.60;99.00;;;19.62;56.78;98453.06;5107457;27;20413;-76
2022/09/25 07:18:24;;;;;;;74.28;28.17;;;19.60;98.80;;;19.58;56.67;98452.13;5073371;27;20505;-76
2022/09/25 07:20:50;;;;;;;64.57;27.42;;;19.60;98.70;;;19.59;56.52;98450.16;5074741;27;20122;-75
2022/09/25 07:23:18;;;;;;;71.32;29.95;;;19.50;98.70;;;19.58;57.48;98457.63;5088872;27;20764;-75
2022/09/25 07:25:45;;;;;;;89.95;36.72;;;19.50;98.90;;;19.58;58.49;98459.56;5108160;27;20043;-75
2022/09/25 07:28:13;;;;;;;92.97;39.58;;;19.50;99.50;;;19.58;59.47;98457.63;5096261;27;20045;-76
2022/09/25 07:30:40;;;;;;;100.45;41.20;;;19.50;99.80;;;19.53;60.00;98463.34;5091304;27;20039;-77
2022/09/25 07:33:07;;;;;;;106.78;40.45;;;19.60;99.90;;;19.53;59.52;98460.59;5056922;27;20044;-76
2022/09/25 07:35:34;;;;;;;94.90;41.25;;;19.60;99.90;;;19.55;59.28;98460.25;5107501;27;20158;-76
2022/09/25 07:38:02;;;;;;;88.68;37.42;;;19.60;99.70;;;19.55;58.98;98468.50;5091225;27;20096;-76
2022/09/25 07:40:30;;;;;;;99.55;37.95;;;19.60;99.50;;;19.56;58.95;98473.66;5103830;27;20050;-76
2022/09/25 07:43:05;;;;;;;92.25;37.53;;;19.60;99.70;;;19.55;59.72;98468.50;5074508;27;20043;-76
2022/09/25 07:45:31;;;;;;;92.18;35.42;;;19.60;99.80;;;19.55;59.40;98474.03;5092809;27;20046;-76
2022/09/25 07:48:01;;;;;;;89.80;38.88;;;19.60;99.80;;;19.57;58.91;98474.50;5107639;27;20035;-76
2022/09/25 07:50:31;;;;;;;91.40;36.00;;;19.60;99.50;;;19.58;58.61;98473.31;5072738;28;20043;-76
2022/09/25 07:52:57;;;;;;;86.95;36.47;;;19.60;99.30;;;19.59;58.46;98473.00;5073533;27;20586;-76
2022/09/25 07:55:23;;;;;;;90.00;35.45;;;19.70;99.30;;;19.58;58.38;98474.13;5091272;27;20061;-76
2022/09/25 07:57:50;;;;;;;87.40;34.78;;;19.60;99.20;;;19.64;58.76;98474.69;5092096;27;20520;-76
2022/09/25 08:00:17;;;;;;;92.32;34.90;;;19.70;99.90;;;19.65;58.77;98476.31;5074057;27;20051;-76
2022/09/25 08:02:43;;;;;;;83.28;32.67;;;19.70;99.50;;;19.66;58.46;98466.91;5090963;27;20047;-78
2022/09/25 08:05:10;;;;;;;83.38;30.73;;;19.70;99.30;;;19.68;58.16;98468.22;5091111;27;20087;-77
2022/09/25 08:07:36;;;;;;;73.03;32.35;;;19.70;99.20;;;19.69;57.96;98467.09;5103462;27;20047;-78
2022/09/25 08:10:03;;;;;;;84.28;34.17;;;19.70;99.20;;;19.70;57.89;98468.69;5092350;27;20075;-75
2022/09/25 08:12:29;;;;;;;70.30;31.27;;;19.70;99.10;;;19.72;57.97;98466.41;5106856;27;20742;-75
2022/09/25 08:14:55;;;;;;;78.00;31.20;;;19.70;99.20;;;19.72;58.35;98469.16;5107713;27;20042;-75
2022/09/25 08:17:21;;;;;;;76.85;31.80;;;19.80;99.30;;;19.69;58.53;98464.34;5106891;27;20451;-75
2022/09/25 08:19:47;;;;;;;70.00;31.23;;;19.70;99.30;;;19.67;58.17;98463.88;5089855;27;20035;-75
2022/09/25 08:22:14;;;;;;;80.00;30.10;;;19.80;99.20;;;19.65;58.21;98476.31;5113031;27;20061;-74
2022/09/25 08:24:40;;;;;;;75.93;30.55;;;19.80;99.10;;;19.65;57.87;98465.31;5106748;27;20043;-75
2022/09/25 08:27:06;;;;;;;67.60;29.35;;;19.70;99.00;;;19.65;58.20;98462.56;5085426;27;20043;-75
2022/09/25 08:29:33;;;;;;;69.82;30.20;;;19.80;99.00;;;19.66;58.53;98459.47;5103482;27;20073;-75
2022/09/25 08:31:59;;;;;;;85.45;29.85;;;19.70;99.20;;;19.67;58.59;98452.06;5106120;27;20085;-75
2022/09/25 08:34:26;;;;;;;73.35;30.10;;;19.80;99.30;;;19.65;58.90;98449.63;5105022;27;20544;-75
2022/09/25 08:36:53;;;;;;;70.30;27.73;;;19.80;99.30;;;19.67;57.82;98452.84;5107533;27;20073;-75
2022/09/25 08:39:19;;;;;;;63.05;25.77;;;19.80;99.10;;;19.68;58.24;98450.91;5090704;28;20376;-75
2022/09/25 08:41:53;;;;;;;60.78;26.60;;;19.80;99.10;;;19.65;58.10;98452.38;5089905;28;20036;-75
2022/09/25 08:44:29;;;;;;;75.10;26.85;;;19.80;99.00;;;19.66;58.19;98451.19;5072014;27;20065;-75
2022/09/25 08:50:09;;;;;;;;;;;19.80;99.20;;;19.67;59.01;98444.59;5094314;27;20039;-75
2022/09/25 08:52:36;;;;;;;54.17;23.27;;;19.90;99.40;;;19.65;58.50;98446.06;5102356;27;19967;-75
2022/09/25 08:55:02;;;;;;;77.43;27.08;;;19.80;99.00;;;19.66;58.27;98434.69;5089523;27;20144;-75
2022/09/25 08:57:36;;;;;;;63.28;23.60;;;19.80;99.00;;;19.66;58.18;98431.94;5105438;27;20093;-75
2022/09/25 09:00:13;;;;;;;55.13;23.60;;;19.80;99.00;;;19.67;58.17;98425.34;5072569;28;20069;-75
2022/09/25 09:02:45;;;;;;;58.05;24.35;;;19.80;99.00;;;19.68;58.94;98424.19;5073578;27;20539;-75
2022/09/25 09:05:26;;;;;;;56.55;25.08;;;19.80;99.30;;;19.67;58.79;98424.53;5069162;28;20142;-75
2022/09/25 09:08:08;;;;;;;48.65;21.13;;;19.80;99.30;;;19.63;58.82;98421.63;5105060;27;20042;-75
2022/09/25 09:10:50;;;;;;;49.92;22.17;;;19.80;99.20;;;19.65;58.68;98411.09;5090217;28;20134;-75
2022/09/25 09:13:42;;;;;;;65.60;22.23;;;19.80;99.10;;;19.65;58.48;98419.34;5074775;28;20047;-75
2022/09/25 09:16:25;;;;;;;55.78;21.73;;;19.80;99.00;;;19.66;58.50;98422.91;5073283;28;20039;-75
2022/09/25 09:18:52;;;;;;;53.10;20.88;;;19.80;99.00;;;19.64;59.33;98422.44;5105350;28;20042;-75
2022/09/25 09:21:35;;;;;;;59.03;21.10;;;19.80;99.30;;;19.65;59.32;98415.78;5069798;28;20046;-75
2022/09/25 09:24:13;;;;;;;49.50;19.23;;;19.80;99.40;;;19.66;58.77;98417.38;5072099;28;20135;-75
2022/09/25 09:27:10;;;;;;;45.45;19.15;;;19.80;99.20;;;19.66;58.81;98423.69;5106426;28;20046;-75
2022/09/25 09:30:17;;;;;;;44.15;18.85;;;19.80;99.10;;;19.68;58.38;98426.94;5101666;28;20143;-75
2022/09/25 09:33:33;;;;;;;40.75;17.73;;;19.80;99.00;;;19.69;58.49;98423.06;5058617;28;20116;-75
2022/09/25 09:36:24;;;;;;;43.47;18.80;;;19.90;99.10;;;19.70;59.26;98410.88;5041920;28;20062;-75
2022/09/25 09:39:10;;;;;;;47.47;20.38;;;19.90;99.40;;;19.69;59.14;98409.31;5100433;28;20085;-75
2022/09/25 09:41:53;;;;;;;47.72;19.70;;;19.90;99.40;;;19.71;58.76;98404.22;5089837;28;20448;-75
2022/09/25 09:45:16;;;;;;;42.58;17.88;;;19.90;99.10;;;19.71;58.52;98395.19;5105493;28;20176;-75
2022/09/25 09:48:17;;;;;;;44.83;17.80;;;19.90;99.10;;;19.75;58.56;98400.81;5026417;28;20071;-75
2022/09/25 09:50:52;;;;;;;33.92;15.77;;;19.90;99.00;;;19.76;58.87;98399.66;5013062;28;20784;-77
2022/09/25 09:53:31;;;;;;;41.78;16.33;;;19.90;99.30;;;19.78;58.95;98405.63;5073727;28;20060;-75
2022/09/25 09:56:26;;;;;;;40.95;17.23;;;19.90;99.40;;;19.77;58.56;98404.00;5091865;28;20486;-75
2022/09/25 09:59:28;;;;;;;31.75;15.68;;;19.90;99.30;;;19.77;58.61;98412.25;5087606;28;20410;-75
2022/09/25 10:02:46;;;;;;;38.67;17.23;;;19.90;99.10;;;19.82;59.38;98412.03;5076313;27;20042;-76
2022/09/25 10:06:03;;;;;;;61.80;17.77;;;20.00;99.50;;;19.79;63.68;98412.72;5095664;27;20151;-76
2022/09/25 10:08:29;;;;;;;41.42;17.23;;;19.90;99.90;;;19.82;61.74;98403.78;5102393;27;20509;-78
2022/09/25 10:10:58;;;;;;;38.53;17.15;;;20.00;99.90;;;19.81;62.23;98408.47;5102501;28;20379;-81
2022/09/25 10:13:31;;;;;;;37.67;17.08;;;20.00;99.90;;;19.82;61.40;98401.03;5089911;28;20040;-76
2022/09/25 10:16:10;;;;;;;37.30;17.40;;;20.00;99.90;;;19.84;60.87;98404.22;5096003;27;20431;-75
2022/09/25 10:18:52;;;;;;;32.60;14.82;;;20.00;99.90;;;19.84;60.69;98412.50;5092012;28;20040;-81
2022/09/25 10:21:24;;;;;;;36.60;16.10;;;20.00;99.90;;;19.88;60.37;98405.16;5091284;27;20453;-81
2022/09/25 10:23:52;;;;;;;42.22;15.65;;;20.00;99.90;;;19.88;60.92;98394.16;5095220;27;20044;-83
2022/09/25 10:26:38;;;;;;;32.25;15.60;;;20.00;99.90;;;19.91;60.93;98385.19;5076135;27;20035;-80
2022/09/25 10:29:26;;;;;;;30.63;12.77;;;20.00;99.90;;;19.89;60.30;98393.78;5086261;28;20086;-81
2022/09/25 10:32:02;;;;;;;39.42;14.57;;;20.00;99.90;;;19.89;60.15;98395.75;5079699;28;20205;-81
2022/09/25 10:34:30;;;;;;;35.90;13.80;;;20.00;99.80;;;19.94;59.56;98392.75;5057107;27;20589;-79
2022/09/25 10:36:56;;;;;;;31.20;13.70;;;20.10;99.70;;;19.95;59.42;98397.94;5056491;28;20550;-79
2022/09/25 10:39:38;;;;;;;29.92;14.23;;;20.00;99.60;;;19.97;59.92;98392.06;5092175;27;20043;-78
2022/09/25 10:42:26;;;;;;;34.63;14.73;;;20.10;99.90;;;20.01;60.28;98393.00;5073546;27;20040;-76
2022/09/25 10:44:57;;;;;;;34.92;14.43;;;20.10;99.90;;;20.04;62.09;98392.28;5094592;27;20042;-76
2022/09/25 10:50:22;;;;;;;29.77;13.60;;;20.10;99.90;;;20.14;60.01;98393.78;5104179;27;20054;-76
2022/09/25 10:52:54;;;;;;;25.80;12.07;;;20.20;99.90;;;20.17;59.44;98399.41;5084994;27;20050;-76